PWSweather.com
Personal Weather Stations
Station Observations
BRANKSOME
Branksome, PooleGB BH12 1EF

BranksomePooleGB BH12 1EF

Lat: 50.7280546, Lon: -1.9122614

Elevation: 20

Station Type: Watson W-8681 Solar

http://branksomeweather.co.uk/index.php

Latest ConditionsUpdated 5:30:00 PM GMT Saturday, Jan 19, 2019
Currently Today's Max Today's Min Today's Average
Temperature 44.1°F6.7°C 45.1°F7.3°C 42.8°F6.0°C 44.4°F6.9°C
Dew Point 40.7°F4.8°C 42.1°F5.6°C 38.6°F3.7°C 41.0°F5.0°C
Winds 2.2 mph E3.5 kmh E 6.9 mph -11.1 kmh - - 3.1 mph 5.0 kmh
Wind Gusts 4.5 mph7.2 kmh 14.5 mph23.3 kmh - -
Humidity 88% 89% 85% 88%
Pressure 29.71 in1006.1 mb 29.78 in1008.5 mb 29.68 in1005.1 mb -
Precipitation - 0.22 in5.6 mm - -
Hour Temp Dew Point Humidity Winds Wind Gusts Pressure Precip Precip Rate Daily Precip Total
05:30 PM 44.1°F6.7°C 40.7°F4.8°C 88% 2.2 mph E3.5 kmh E 4.5 mph7.2 kmh 29.71 in1006.1 mb 0.00 in0.0 mm 0.00 in0.0 mm 0.22 in5.6 mm
05:00 PM 44.2°F6.8°C 40.9°F4.9°C 88% Calm Calm 6.0 mph9.7 kmh 29.70 in1005.8 mb 0.00 in0.0 mm 0.00 in0.0 mm 0.22 in5.6 mm
04:30 PM 44.1°F6.7°C 41.0°F5.0°C 89% 0.7 mph ESE1.1 kmh ESE 3.8 mph6.1 kmh 29.70 in1005.8 mb 0.00 in0.0 mm 0.00 in0.0 mm 0.22 in5.6 mm
04:00 PM 44.2°F6.8°C 41.2°F5.1°C 89% 2.2 mph ESE3.5 kmh ESE 5.4 mph8.7 kmh 29.69 in1005.4 mb 0.00 in0.0 mm 0.00 in0.0 mm 0.22 in5.6 mm
03:30 PM 44.6°F7.0°C 41.3°F5.2°C 88% 3.1 mph SE5.0 kmh SE 8.3 mph13.4 kmh 29.68 in1005.1 mb 0.00 in0.0 mm 0.00 in0.0 mm 0.22 in5.6 mm
03:00 PM 44.8°F7.1°C 41.4°F5.2°C 88% 0.7 mph SE1.1 kmh SE 9.8 mph15.8 kmh 29.68 in1005.1 mb 0.00 in0.0 mm 0.00 in0.0 mm 0.22 in5.6 mm
02:30 PM 45.0°F7.2°C 41.9°F5.5°C 89% 3.8 mph ESE6.1 kmh ESE 7.6 mph12.2 kmh 29.68 in1005.1 mb 0.01 in0.3 mm 0.00 in0.0 mm 0.22 in5.6 mm
02:00 PM 45.0°F7.2°C 41.9°F5.5°C 89% 3.1 mph SE5.0 kmh SE 9.8 mph15.8 kmh 29.68 in1005.1 mb 0.01 in0.3 mm 0.00 in0.0 mm 0.22 in5.6 mm
01:30 PM 45.1°F7.3°C 42.1°F5.6°C 89% 3.1 mph SE5.0 kmh SE 10.7 mph17.2 kmh 29.68 in1005.1 mb 0.02 in0.5 mm 0.00 in0.0 mm 0.21 in5.3 mm
01:00 PM 45.0°F7.2°C 41.9°F5.5°C 89% 3.8 mph SE6.1 kmh SE 10.7 mph17.2 kmh 29.68 in1005.1 mb 0.02 in0.5 mm 0.04 in1.0 mm 0.21 in5.3 mm
12:30 PM 45.0°F7.2°C 41.9°F5.5°C 89% 6.0 mph SE9.7 kmh SE 10.7 mph17.2 kmh 29.69 in1005.4 mb 0.00 in0.0 mm 0.00 in0.0 mm 0.19 in4.8 mm
12:00 PM 45.1°F7.3°C 42.1°F5.6°C 89% 3.1 mph SE5.0 kmh SE 8.3 mph13.4 kmh 29.70 in1005.8 mb 0.00 in0.0 mm 0.00 in0.0 mm 0.19 in4.8 mm
11:30 AM 45.0°F7.2°C 41.9°F5.5°C 89% 4.5 mph SE7.2 kmh SE 10.7 mph17.2 kmh 29.70 in1005.8 mb 0.01 in0.3 mm 0.00 in0.0 mm 0.19 in4.8 mm
11:00 AM 44.8°F7.1°C 41.7°F5.4°C 89% 2.2 mph SE3.5 kmh SE 9.2 mph14.8 kmh 29.71 in1006.1 mb 0.04 in1.0 mm 0.00 in0.0 mm 0.19 in4.8 mm
10:30 AM 44.6°F7.0°C 41.6°F5.3°C 89% 4.5 mph SE7.2 kmh SE 7.6 mph12.2 kmh 29.71 in1006.1 mb 0.04 in1.0 mm 0.00 in0.0 mm 0.18 in4.6 mm
10:00 AM 44.8°F7.1°C 41.7°F5.4°C 89% 3.1 mph SE5.0 kmh SE 7.6 mph12.2 kmh 29.71 in1006.1 mb 0.04 in1.0 mm 0.00 in0.0 mm 0.15 in3.8 mm
09:30 AM 44.6°F7.0°C 41.3°F5.2°C 88% 0.7 mph SE1.1 kmh SE 8.3 mph13.4 kmh 29.70 in1005.8 mb 0.04 in1.0 mm 0.00 in0.0 mm 0.14 in3.6 mm
09:00 AM 44.8°F7.1°C 41.4°F5.2°C 88% 2.2 mph SSE3.5 kmh SSE 12.1 mph19.5 kmh 29.70 in1005.8 mb 0.04 in1.0 mm 0.00 in0.0 mm 0.12 in3.0 mm
08:30 AM 44.8°F7.1°C 41.4°F5.2°C 88% 6.9 mph SSE11.1 kmh SSE 9.8 mph15.8 kmh 29.69 in1005.4 mb 0.04 in1.0 mm 0.04 in1.0 mm 0.11 in2.8 mm
08:00 AM 44.8°F7.1°C 41.4°F5.2°C 88% 3.1 mph SSE5.0 kmh SSE 13.6 mph21.9 kmh 29.69 in1005.4 mb 0.02 in0.5 mm 0.00 in0.0 mm 0.08 in2.0 mm
07:30 AM 45.1°F7.3°C 41.8°F5.4°C 88% 3.1 mph SSE5.0 kmh SSE 9.2 mph14.8 kmh 29.69 in1005.4 mb 0.02 in0.5 mm 0.00 in0.0 mm 0.07 in1.8 mm
07:00 AM 45.0°F7.2°C 41.6°F5.3°C 88% 3.8 mph SSE6.1 kmh SSE 9.8 mph15.8 kmh 29.69 in1005.4 mb 0.02 in0.5 mm 0.00 in0.0 mm 0.06 in1.5 mm
06:30 AM 45.0°F7.2°C 41.6°F5.3°C 88% 3.8 mph SSE6.1 kmh SSE 7.6 mph12.2 kmh 29.69 in1005.4 mb 0.02 in0.5 mm 0.02 in0.5 mm 0.05 in1.3 mm
06:00 AM 45.0°F7.2°C 41.3°F5.2°C 87% 3.1 mph S5.0 kmh S 11.4 mph18.3 kmh 29.70 in1005.8 mb 0.01 in0.3 mm 0.02 in0.5 mm 0.04 in1.0 mm
05:30 AM 45.1°F7.3°C 41.5°F5.3°C 87% 2.2 mph S3.5 kmh S 10.7 mph17.2 kmh 29.70 in1005.8 mb 0.00 in0.0 mm 0.00 in0.0 mm 0.02 in0.5 mm
05:00 AM 45.1°F7.3°C 41.5°F5.3°C 87% 0.7 mph S1.1 kmh S 9.8 mph15.8 kmh 29.71 in1006.1 mb 0.00 in0.0 mm 0.00 in0.0 mm 0.02 in0.5 mm
04:30 AM 44.8°F7.1°C 41.1°F5.1°C 87% 2.2 mph S3.5 kmh S 10.7 mph17.2 kmh 29.70 in1005.8 mb 0.00 in0.0 mm 0.00 in0.0 mm 0.02 in0.5 mm
04:00 AM 44.2°F6.8°C 40.6°F4.8°C 87% 2.2 mph S3.5 kmh S 9.2 mph14.8 kmh 29.72 in1006.4 mb 0.00 in0.0 mm 0.00 in0.0 mm 0.02 in0.5 mm
03:30 AM 43.7°F6.5°C 40.1°F4.5°C 87% 6.0 mph S9.7 kmh S 10.7 mph17.2 kmh 29.73 in1006.8 mb 0.00 in0.0 mm 0.00 in0.0 mm 0.02 in0.5 mm
03:00 AM 43.3°F6.3°C 39.7°F4.3°C 87% 3.8 mph SSE6.1 kmh SSE 14.5 mph23.3 kmh 29.74 in1007.1 mb 0.00 in0.0 mm 0.00 in0.0 mm 0.02 in0.5 mm
02:30 AM 43.2°F6.2°C 39.6°F4.2°C 87% 3.8 mph S6.1 kmh S 13.0 mph20.9 kmh 29.75 in1007.5 mb 0.00 in0.0 mm 0.00 in0.0 mm 0.02 in0.5 mm
02:00 AM 43.0°F6.1°C 39.4°F4.1°C 87% 3.8 mph SSW6.1 kmh SSW 10.7 mph17.2 kmh 29.75 in1007.5 mb 0.00 in0.0 mm 0.00 in0.0 mm 0.02 in0.5 mm
01:30 AM 43.0°F6.1°C 39.4°F4.1°C 87% 3.1 mph SSW5.0 kmh SSW 13.0 mph20.9 kmh 29.75 in1007.5 mb 0.00 in0.0 mm 0.00 in0.0 mm 0.02 in0.5 mm
01:00 AM 43.2°F6.2°C 39.6°F4.2°C 87% 4.5 mph S7.2 kmh S 9.8 mph15.8 kmh 29.76 in1007.8 mb 0.02 in0.5 mm 0.02 in0.5 mm 0.02 in0.5 mm
12:30 AM 43.0°F6.1°C 39.4°F4.1°C 87% 6.0 mph S9.7 kmh S 8.3 mph13.4 kmh 29.77 in1008.1 mb 0.01 in0.3 mm 0.00 in0.0 mm 0.01 in0.3 mm
12:00 AM 42.8°F6.0°C 38.6°F3.7°C 85% 2.2 mph SSE3.5 kmh SSE 9.2 mph14.8 kmh 29.78 in1008.5 mb 0.02 in0.5 mm 0.00 in0.0 mm 0.02 in0.5 mm